Time;durP1;ratioP1;P1;durP2;ratioP2;P2;SDS_P1;SDS_P2;PMS_P1;PMS_P2;Temp;Humidity;BMP_temperature;BMP_pressure;BME280_temperature;BME280_humidity;BME280_pressure;Samples;Min_cycle;Max_cycle;Signal;HPM_P1;HPM_P2
2022/02/09 00:00:20;;;;;;;1.13;1.00;;;;;;;-139.48;100.00;61774.03;5017433;28;20163;-72
2022/02/09 00:03:17;;;;;;;3.33;1.10;;;;;;;-139.48;100.00;61774.03;5017330;28;20098;-72
2022/02/09 00:06:06;;;;;;;1.77;1.08;;;;;;;-139.48;100.00;61774.03;5019174;28;20048;-72
2022/02/09 00:08:50;;;;;;;1.02;0.90;;;;;;;-139.48;100.00;61774.03;5018479;28;20099;-72
2022/02/09 00:11:46;;;;;;;1.77;1.10;;;;;;;-139.48;100.00;61774.03;5032433;28;20151;-71
2022/02/09 00:20:42;;;;;;;1.70;1.00;;;;;;;-139.48;100.00;61774.03;5019418;28;20053;-72
2022/02/09 00:23:42;;;;;;;1.15;0.90;;;;;;;-139.48;100.00;61774.03;5020606;28;20079;-72
2022/02/09 01:02:42;;;;;;;1.30;1.15;;;;;;;-139.48;100.00;61774.03;5035357;28;20086;-72
2022/02/09 01:33:10;;;;;;;2.78;1.40;;;;;;;-139.48;100.00;61774.03;5035395;28;20579;-69
2022/02/09 01:56:31;;;;;;;2.78;1.77;;;;;;;-139.48;100.00;61774.03;5022021;28;20048;-72
2022/02/09 01:59:15;;;;;;;2.47;1.70;;;;;;;-139.48;100.00;61774.03;5034196;28;20068;-72
2022/02/09 02:01:59;;;;;;;1.77;1.40;;;;;;;-139.48;100.00;61774.03;5004677;28;20083;-69
2022/02/09 02:04:45;;;;;;;3.63;1.65;;;;;;;-139.48;100.00;61774.03;5034475;28;20048;-71
2022/02/09 02:07:43;;;;;;;1.63;1.48;;;;;;;-139.48;100.00;61774.03;5019818;28;20048;-72
2022/02/09 02:13:38;;;;;;;2.50;1.58;;;;;;;-139.48;100.00;61774.03;5019633;28;20130;-72
2022/02/09 02:19:12;;;;;;;1.75;1.30;;;;;;;-139.48;100.00;61774.03;5019391;28;20408;-72
2022/02/09 02:22:33;;;;;;;1.25;1.15;;;;;;;-139.48;100.00;61774.03;5019640;28;20048;-71
2022/02/09 02:25:41;;;;;;;3.08;1.50;;;;;;;-139.48;100.00;61774.03;5034036;28;20116;-72
2022/02/09 02:46:57;;;;;;;4.10;1.58;;;;;;;-139.48;100.00;61774.03;5033637;28;20107;-72
2022/02/09 03:08:49;;;;;;;1.63;1.27;;;;;;;-139.48;100.00;61774.03;5041024;28;20055;-72
2022/02/09 03:11:16;;;;;;;2.28;1.52;;;;;;;-139.48;100.00;61774.03;5025035;28;20067;-73
2022/02/09 03:14:10;;;;;;;2.70;1.35;;;;;;;-139.48;100.00;61774.03;5017091;28;20485;-73
2022/02/09 03:17:00;;;;;;;5.85;1.65;;;;;;;-139.48;100.00;61774.03;5042514;28;20053;-73
2022/02/09 03:19:53;;;;;;;6.00;2.03;;;;;;;-139.48;100.00;61774.03;5040854;28;20179;-72
2022/02/09 03:23:00;;;;;;;5.20;1.57;;;;;;;-139.48;100.00;61774.03;5018026;28;20080;-73
2022/02/09 03:26:04;;;;;;;2.95;1.42;;;;;;;-139.48;100.00;61774.03;5007281;28;20463;-72
2022/02/09 03:44:20;;;;;;;5.50;2.17;;;;;;;-139.48;100.00;61774.03;5020385;28;20410;-73
2022/02/09 03:58:37;;;;;;;3.88;2.00;;;;;;;-139.48;100.00;61774.03;5018398;28;20155;-73
2022/02/09 04:01:24;;;;;;;4.07;2.33;;;;;;;-139.48;100.00;61774.03;5003425;28;20519;-73
2022/02/09 04:04:08;;;;;;;3.92;2.80;;;;;;;-139.48;100.00;61774.03;5017638;28;20044;-73
2022/02/09 04:06:53;;;;;;;4.82;2.65;;;;;;;-139.48;100.00;61774.03;5032865;28;20103;-73
2022/02/09 04:09:40;;;;;;;5.82;1.48;;;;;;;-139.48;100.00;61774.03;5017346;28;20433;-71
2022/02/09 04:36:51;;;;;;;9.38;4.85;;;;;;;-139.48;100.00;61774.03;5036128;28;20091;-73
2022/02/09 04:39:46;;;;;;;10.27;5.07;;;;;;;-139.48;100.00;61774.03;5011041;28;20055;-73
2022/02/09 04:45:58;;;;;;;10.32;5.45;;;;;;;-139.48;100.00;61774.03;5035945;28;20095;-71
2022/02/09 04:54:59;;;;;;;8.23;4.72;;;;;;;-139.48;100.00;61774.03;5023271;28;20044;-73
2022/02/09 04:57:59;;;;;;;12.30;4.95;;;;;;;-139.48;100.00;61774.03;5035804;28;20203;-72
2022/02/09 05:00:57;;;;;;;12.00;5.25;;;;;;;-139.48;100.00;61774.03;5010971;28;20524;-73
2022/02/09 05:04:04;;;;;;;13.25;6.20;;;;;;;-139.48;100.00;61774.03;5008753;28;20135;-73
2022/02/09 05:22:19;;;;;;;12.55;6.03;;;;;;;-139.48;100.00;61774.03;5035255;28;20076;-73
2022/02/09 05:25:27;;;;;;;13.95;5.68;;;;;;;-139.48;100.00;61774.03;5022784;28;20044;-73
2022/02/09 05:28:17;;;;;;;12.32;5.65;;;;;;;-139.48;100.00;61774.03;5034886;28;20047;-73
2022/02/09 05:31:03;;;;;;;14.82;5.63;;;;;;;-139.48;100.00;61774.03;5035060;28;20115;-73
2022/02/09 05:33:48;;;;;;;11.38;5.10;;;;;;;-139.48;100.00;61774.03;5020062;28;20087;-72
2022/02/09 05:36:32;;;;;;;8.48;5.40;;;;;;;-139.48;100.00;61774.03;5034525;28;20049;-73
2022/02/09 05:39:16;;;;;;;14.82;5.85;;;;;;;-139.48;100.00;61774.03;5019549;28;20168;-72
2022/02/09 05:42:00;;;;;;;13.38;6.53;;;;;;;-139.48;100.00;61774.03;5019569;28;20052;-72
2022/02/09 05:44:44;;;;;;;12.32;5.78;;;;;;;-139.48;100.00;61774.03;5005775;28;20052;-72
2022/02/09 05:48:42;;;;;;;16.73;5.93;;;;;;;-139.48;100.00;61774.03;5034811;28;20115;-72
2022/02/09 05:50:49;;;;;;;12.50;5.82;;;;;;;-139.48;100.00;61774.03;5030939;28;20056;-72
2022/02/09 05:54:01;;;;;;;15.18;7.07;;;;;;;-139.48;100.00;61774.03;5022007;28;20531;-73
2022/02/09 05:56:47;;;;;;;11.43;5.93;;;;;;;-139.48;100.00;61774.03;5034915;28;20500;-71
2022/02/09 05:59:31;;;;;;;12.52;6.50;;;;;;;-139.48;100.00;61774.03;5019450;28;20504;-73
2022/02/09 06:02:19;;;;;;;13.35;6.05;;;;;;;-139.48;100.00;61774.03;5019300;28;20512;-73
2022/02/09 06:05:03;;;;;;;12.07;6.55;;;;;;;-139.48;100.00;61774.03;5034443;28;20057;-73
2022/02/09 06:07:47;;;;;;;16.55;6.78;;;;;;;-139.48;100.00;61774.03;5042181;23;20103;-73
2022/02/09 06:10:33;;;;;;;18.00;6.30;;;;;;;-139.48;100.00;61774.03;5034175;28;20048;-73
2022/02/09 06:13:43;;;;;;;13.55;6.25;;;;;;;-139.48;100.00;61774.03;5033129;28;20052;-73
2022/02/09 06:20:03;;;;;;;12.85;6.55;;;;;;;-139.48;100.00;61774.03;5034421;28;20045;-73
2022/02/09 06:22:40;;;;;;;17.73;7.38;;;;;;;-139.48;100.00;61774.03;5033666;28;20048;-73
2022/02/09 06:25:24;;;;;;;19.42;8.00;;;;;;;-139.48;100.00;61774.03;5034130;28;20060;-74
2022/02/09 06:28:07;;;;;;;16.45;7.57;;;;;;;-139.48;100.00;61774.03;5034063;28;20060;-73
2022/02/09 06:30:51;;;;;;;;;;;;;;;-139.48;100.00;61774.03;5034110;28;20048;-72
2022/02/09 06:33:35;;;;;;;11.17;6.73;;;;;;;-139.48;100.00;61774.03;5033728;28;19959;-73
2022/02/09 06:36:23;;;;;;;15.23;6.65;;;;;;;-139.48;100.00;61774.03;5018756;28;20428;-74
2022/02/09 06:39:09;;;;;;;12.77;6.75;;;;;;;-139.48;100.00;61774.03;5033800;28;20580;-73
2022/02/09 06:41:53;;;;;;;16.88;7.25;;;;;;;-139.48;100.00;61774.03;5033818;28;20052;-72
2022/02/09 06:44:37;;;;;;;11.10;6.60;;;;;;;-139.48;100.00;61774.03;5033668;28;20056;-73
2022/02/09 06:47:24;;;;;;;;;;;;;;;-139.48;100.00;61774.03;5032869;28;20099;-74
2022/02/09 06:50:16;;;;;;;17.23;6.75;;;;;;;-139.48;100.00;61774.03;5033231;28;19966;-73
2022/02/09 06:53:12;;;;;;;14.80;6.88;;;;;;;-139.48;100.00;61774.03;5032437;28;20091;-73
2022/02/09 06:55:58;;;;;;;12.18;6.25;;;;;;;-139.48;100.00;61774.03;5033321;28;20091;-73
2022/02/09 06:58:57;;;;;;;10.77;6.63;;;;;;;-139.48;100.00;61774.03;5033452;28;20056;-74
2022/02/09 07:01:41;;;;;;;14.88;6.90;;;;;;;-139.48;100.00;61774.03;5033208;28;20052;-73
2022/02/09 07:04:26;;;;;;;14.98;7.47;;;;;;;-139.48;100.00;61774.03;5032392;28;20577;-73
2022/02/09 07:07:10;;;;;;;18.40;7.45;;;;;;;-139.48;100.00;61774.03;5032075;28;20063;-74
2022/02/09 07:09:54;;;;;;;11.52;6.70;;;;;;;-139.48;100.00;61774.03;5032284;28;20188;-74
2022/02/09 07:12:38;;;;;;;14.52;7.63;;;;;;;-139.48;100.00;61774.03;5033533;28;20067;-73
2022/02/09 07:15:33;;;;;;;14.45;7.63;;;;;;;-139.48;100.00;61774.03;5032179;28;20048;-73
2022/02/09 07:18:18;;;;;;;11.90;6.70;;;;;;;-139.48;100.00;61774.03;5019318;28;20044;-74
2022/02/09 07:21:07;;;;;;;15.63;8.00;;;;;;;-139.48;100.00;61774.03;5031788;28;20477;-74
2022/02/09 07:23:54;;;;;;;22.05;9.00;;;;;;;-139.48;100.00;61774.03;5032407;28;20166;-74
2022/02/09 07:26:48;;;;;;;20.15;8.50;;;;;;;-139.48;100.00;61774.03;5031727;28;20064;-73
2022/02/09 07:29:32;;;;;;;17.00;8.50;;;;;;;-139.48;100.00;61774.03;5031792;28;20509;-73
2022/02/09 07:32:16;;;;;;;18.27;8.70;;;;;;;-139.48;100.00;61774.03;5031926;28;20048;-74
2022/02/09 07:35:00;;;;;;;20.75;8.40;;;;;;;-139.48;100.00;61774.03;5032709;28;20052;-74
2022/02/09 07:37:44;;;;;;;19.65;8.30;;;;;;;-139.48;100.00;61774.03;5032813;28;20102;-74
2022/02/09 07:40:28;;;;;;;21.45;10.10;;;;;;;-139.48;100.00;61774.03;5031708;28;20140;-73
2022/02/09 07:43:23;;;;;;;16.70;8.63;;;;;;;-139.48;100.00;61774.03;5031581;28;20064;-74
2022/02/09 07:49:23;;;;;;;17.60;8.65;;;;;;;-139.48;100.00;61774.03;5032467;28;20095;-74
2022/02/09 07:52:19;;;;;;;21.63;8.35;;;;;;;-139.48;100.00;61774.03;5032821;28;20138;-73
2022/02/09 07:55:02;;;;;;;20.90;9.63;;;;;;;-139.48;100.00;61774.03;5031816;28;20128;-73
2022/02/09 07:57:46;;;;;;;20.75;9.25;;;;;;;-139.48;100.00;61774.03;5031604;28;20064;-73
2022/02/09 08:00:31;;;;;;;17.08;8.30;;;;;;;-139.48;100.00;61774.03;5032341;28;20248;-74
2022/02/09 08:03:15;;;;;;;17.45;9.50;;;;;;;-139.48;100.00;61774.03;5035538;28;20058;-73
2022/02/09 08:05:59;;;;;;;;;;;;;;;-139.48;100.00;61774.03;5021998;28;20091;-73
2022/02/09 08:08:44;;;;;;;20.63;9.17;;;;;;;-139.48;100.00;61774.03;5036934;28;19920;-74
2022/02/09 08:20:33;;;;;;;20.08;10.30;;;;;;;-139.48;100.00;61774.03;5035289;28;20076;-73
2022/02/09 08:34:55;;;;;;;18.60;9.07;;;;;;;-139.48;100.00;61774.03;5036655;28;20048;-73
2022/02/09 08:37:39;;;;;;;17.15;9.50;;;;;;;-139.48;100.00;61774.03;5020909;28;20052;-73
2022/02/09 08:40:24;;;;;;;18.35;8.75;;;;;;;-139.48;100.00;61774.03;5034707;28;20084;-74
2022/02/09 08:43:11;;;;;;;21.52;9.52;;;;;;;-139.48;100.00;61774.03;5034963;28;20051;-74
2022/02/09 08:45:55;;;;;;;19.35;8.10;;;;;;;-139.48;100.00;61774.03;5035037;28;20056;-74
2022/02/09 08:48:39;;;;;;;;;;;;;;;-139.48;100.00;61774.03;5036291;28;20071;-74
2022/02/09 08:51:24;;;;;;;16.23;8.30;;;;;;;-139.48;100.00;61774.03;5020985;28;19919;-73
2022/02/09 08:54:08;;;;;;;15.57;8.20;;;;;;;-139.48;100.00;61774.03;5034992;28;20051;-73
2022/02/09 08:56:54;;;;;;;19.73;9.05;;;;;;;-139.48;100.00;61774.03;5035756;28;20052;-74
2022/02/09 08:59:39;;;;;;;17.17;7.90;;;;;;;-139.48;100.00;61774.03;5035426;28;20130;-74
2022/02/09 09:02:31;;;;;;;17.40;8.30;;;;;;;-139.48;100.00;61774.03;5034674;28;20096;-74
2022/02/09 09:05:22;;;;;;;16.17;8.82;;;;;;;-139.48;100.00;61774.03;5035514;28;20056;-73
2022/02/09 09:08:23;;;;;;;16.92;8.30;;;;;;;-139.48;100.00;61774.03;5034113;28;20048;-74
2022/02/09 09:11:29;;;;;;;21.30;9.38;;;;;;;-139.48;100.00;61774.03;5034371;28;20045;-74
2022/02/09 10:03:24;;;;;;;16.23;7.18;;;;;;;-139.48;100.00;61774.03;4993506;28;20126;-73
2022/02/09 10:34:24;;;;;;;11.55;6.32;;;;;;;-139.48;100.00;61774.03;5033582;28;20108;-73
2022/02/09 10:37:08;;;;;;;14.45;6.35;;;;;;;-139.48;100.00;61774.03;5032046;28;20048;-73
2022/02/09 10:39:59;;;;;;;11.38;5.95;;;;;;;-139.48;100.00;61774.03;5031802;28;20095;-73
2022/02/09 10:42:53;;;;;;;11.73;5.93;;;;;;;-139.48;100.00;61774.03;5032439;28;20145;-72
2022/02/09 10:45:48;;;;;;;8.68;5.32;;;;;;;-139.48;100.00;61774.03;5033346;28;20045;-73
2022/02/09 10:48:37;;;;;;;12.32;5.80;;;;;;;-139.48;100.00;61774.03;5031939;28;20095;-73
2022/02/09 10:51:31;;;;;;;11.55;5.20;;;;;;;-139.48;100.00;61774.03;5032554;28;20044;-72
2022/02/09 10:54:17;;;;;;;11.25;6.07;;;;;;;-139.48;100.00;61774.03;5032141;28;20044;-73
2022/02/09 10:57:04;;;;;;;9.48;5.93;;;;;;;-139.48;100.00;61774.03;5031746;28;20133;-72
2022/02/09 10:59:49;;;;;;;11.57;5.93;;;;;;;-139.48;100.00;61774.03;5032422;28;20212;-73
2022/02/09 11:02:33;;;;;;;10.48;5.75;;;;;;;-139.48;100.00;61774.03;5031426;28;20047;-73
2022/02/09 11:05:19;;;;;;;15.40;6.55;;;;;;;-139.48;100.00;61774.03;5031603;28;20088;-73
2022/02/09 11:08:05;;;;;;;15.07;6.65;;;;;;;-139.48;100.00;61774.03;4995218;28;1058420;-73
2022/02/09 11:10:50;;;;;;;9.30;5.85;;;;;;;-139.48;100.00;61774.03;5032197;28;20052;-73
2022/02/09 11:13:35;;;;;;;11.27;6.22;;;;;;;-139.48;100.00;61774.03;5032992;28;20429;-73
2022/02/09 11:16:21;;;;;;;11.70;6.10;;;;;;;-139.48;100.00;61774.03;5032432;28;20052;-73
2022/02/09 11:19:06;;;;;;;12.65;6.15;;;;;;;-139.48;100.00;61774.03;5032009;28;20049;-72
2022/02/09 11:22:03;;;;;;;10.15;6.00;;;;;;;-139.48;100.00;61774.03;5032235;28;20052;-72
2022/02/09 11:24:48;;;;;;;10.27;5.35;;;;;;;-139.48;100.00;61774.03;5032614;28;20106;-72
2022/02/09 11:27:36;;;;;;;14.02;5.53;;;;;;;-139.48;100.00;61774.03;5033150;28;20115;-73
2022/02/09 11:30:34;;;;;;;24.13;8.32;;;;;;;-139.48;100.00;61774.03;5032205;28;20128;-72
2022/02/09 11:33:26;;;;;;;11.52;5.72;;;;;;;-139.48;100.00;61774.03;5032196;28;20527;-73
2022/02/09 11:39:15;;;;;;;11.02;4.80;;;;;;;-139.48;100.00;61774.03;5033347;28;20124;-72
2022/02/09 11:42:48;;;;;;;11.43;5.43;;;;;;;-139.48;100.00;61774.03;5033172;28;20111;-72
2022/02/09 11:45:57;;;;;;;8.25;4.60;;;;;;;-139.48;100.00;61774.03;4960203;28;20116;-73
2022/02/09 12:10:01;;;;;;;6.97;4.45;;;;;;;-139.48;100.00;61774.03;5033129;28;20049;-73
2022/02/09 12:13:05;;;;;;;7.40;4.25;;;;;;;-139.48;100.00;61774.03;5033021;28;20080;-73
2022/02/09 12:18:52;;;;;;;12.40;4.60;;;;;;;-139.48;100.00;61774.03;5031851;28;20129;-73
2022/02/09 12:21:49;;;;;;;11.55;4.90;;;;;;;-139.48;100.00;61774.03;5017811;28;20053;-73
2022/02/09 12:24:35;;;;;;;8.23;4.55;;;;;;;-139.48;100.00;61774.03;5018966;28;20496;-73
2022/02/09 12:27:21;;;;;;;9.18;4.47;;;;;;;-139.48;100.00;61774.03;5031516;28;20051;-73
2022/02/09 12:30:12;;;;;;;9.65;4.22;;;;;;;-139.48;100.00;61774.03;5031394;28;20045;-73
2022/02/09 12:32:55;;;;;;;11.05;5.07;;;;;;;-139.48;100.00;61774.03;5018173;28;20128;-73
2022/02/09 12:35:40;;;;;;;8.07;4.32;;;;;;;-139.48;100.00;61774.03;5032800;28;20160;-73
2022/02/09 12:38:28;;;;;;;10.15;4.47;;;;;;;-139.48;100.00;61774.03;5031363;28;20571;-73
2022/02/09 12:41:19;;;;;;;9.15;4.25;;;;;;;-139.48;100.00;61774.03;5031446;28;20175;-73
2022/02/09 12:44:05;;;;;;;8.10;4.32;;;;;;;-139.48;100.00;61774.03;5031161;28;20056;-73
2022/02/09 12:46:49;;;;;;;9.60;4.63;;;;;;;-139.48;100.00;61774.03;5032324;28;20056;-73
2022/02/09 12:49:33;;;;;;;15.30;4.72;;;;;;;-139.48;100.00;61774.03;5035457;28;20056;-73
2022/02/09 12:52:24;;;;;;;10.05;3.80;;;;;;;-139.48;100.00;61774.03;5035243;28;20147;-73
2022/02/09 12:55:17;;;;;;;8.15;3.90;;;;;;;-139.48;100.00;61774.03;5035303;28;20509;-73
2022/02/09 12:58:05;;;;;;;8.57;4.10;;;;;;;-139.48;100.00;61774.03;5035754;28;20044;-73
2022/02/09 13:00:50;;;;;;;10.00;3.80;;;;;;;-139.48;100.00;61774.03;5034881;28;20168;-73
2022/02/09 13:03:34;;;;;;;6.78;4.03;;;;;;;-139.48;100.00;61774.03;5034674;28;20156;-73
2022/02/09 13:06:18;;;;;;;10.45;3.63;;;;;;;-139.48;100.00;61774.03;5034676;28;20087;-73
2022/02/09 13:09:02;;;;;;;;;;;;;;;-139.48;100.00;61774.03;5034925;28;20049;-73
2022/02/09 13:11:46;;;;;;;7.17;3.80;;;;;;;-139.48;100.00;61774.03;5035177;28;19920;-72
2022/02/09 13:17:24;;;;;;;8.70;4.00;;;;;;;-139.48;100.00;61774.03;5035008;28;20056;-72
2022/02/09 14:11:53;;;;;;;9.85;3.90;;;;;;;-139.48;100.00;61774.03;5033843;28;20516;-72
2022/02/09 14:35:37;;;;;;;;;;;;;;;-139.48;100.00;61774.03;5034523;28;20091;-73
2022/02/09 14:47:54;;;;;;;10.63;4.05;;;;;;;-139.48;100.00;61774.03;5033789;28;20095;-73
2022/02/09 14:56:30;;;;;;;6.53;3.58;;;;;;;-139.48;100.00;61774.03;5032807;28;20052;-73
2022/02/09 14:59:34;;;;;;;6.00;3.22;;;;;;;-139.48;100.00;61774.03;5032671;28;20064;-73
2022/02/09 15:02:33;;;;;;;5.90;3.13;;;;;;;-139.48;100.00;61774.03;5032817;28;20559;-73
2022/02/09 15:08:35;;;;;;;4.15;2.92;;;;;;;-139.48;100.00;61774.03;5032396;28;20107;-73
2022/02/09 15:14:24;;;;;;;5.05;3.05;;;;;;;-139.48;100.00;61774.03;5032671;28;20048;-73
2022/02/09 15:20:37;;;;;;;5.25;2.85;;;;;;;-139.48;100.00;61774.03;5032918;28;20056;-73
2022/02/09 15:23:18;;;;;;;4.68;2.47;;;;;;;-139.48;100.00;61774.03;5033059;28;20048;-73
2022/02/09 15:26:04;;;;;;;7.25;3.05;;;;;;;-139.48;100.00;61774.03;5032019;28;20048;-73
2022/02/09 15:28:50;;;;;;;4.63;2.97;;;;;;;-139.48;100.00;61774.03;5033076;28;20052;-73
2022/02/09 15:31:44;;;;;;;3.13;2.45;;;;;;;-139.48;100.00;61774.03;5033194;28;20064;-73
2022/02/09 15:34:37;;;;;;;3.88;2.20;;;;;;;-139.48;100.00;61774.03;5033155;28;20087;-73
2022/02/09 15:40:13;;;;;;;3.70;2.22;;;;;;;-139.48;100.00;61774.03;5032131;28;20071;-73
2022/02/09 16:05:38;;;;;;;3.10;1.90;;;;;;;-139.48;100.00;61774.03;5032891;28;20095;-73
2022/02/09 16:08:10;;;;;;;3.17;2.10;;;;;;;-139.48;100.00;61774.03;5031595;28;20060;-73
2022/02/09 16:16:45;;;;;;;4.07;1.60;;;;;;;-139.48;100.00;61774.03;5032623;28;20052;-73
2022/02/09 16:22:36;;;;;;;3.67;2.00;;;;;;;-139.48;100.00;61774.03;5034996;28;20099;-73
2022/02/09 16:38:02;;;;;;;4.00;1.92;;;;;;;-139.48;100.00;61774.03;5035340;28;20052;-73
2022/02/09 16:46:55;;;;;;;3.20;1.70;;;;;;;-139.48;100.00;61774.03;5035830;28;20148;-72
2022/02/09 16:49:51;;;;;;;3.33;1.63;;;;;;;-139.48;100.00;61774.03;5021491;28;20127;-73
2022/02/09 16:52:41;;;;;;;4.28;1.90;;;;;;;-139.48;100.00;61774.03;5036049;28;20103;-73
2022/02/09 17:19:45;;;;;;;4.95;2.28;;;;;;;-139.48;100.00;61774.03;5034453;28;20469;-72
2022/02/09 17:22:29;;;;;;;5.35;2.40;;;;;;;-139.48;100.00;61774.03;5035674;28;20052;-73
2022/02/09 17:25:13;;;;;;;10.60;2.70;;;;;;;-139.48;100.00;61774.03;5034203;28;20052;-73
2022/02/09 17:27:56;;;;;;;4.78;2.15;;;;;;;-139.48;100.00;61774.03;5035286;28;20119;-72
2022/02/09 17:33:45;;;;;;;6.25;2.25;;;;;;;-139.48;100.00;61774.03;5034217;28;20497;-73
2022/02/09 17:55:21;;;;;;;4.20;2.00;;;;;;;-139.48;100.00;61774.03;5035021;28;20111;-73
2022/02/09 17:57:42;;;;;;;6.18;2.10;;;;;;;-139.48;100.00;61774.03;5033939;28;20087;-73
2022/02/09 18:00:26;;;;;;;4.13;2.35;;;;;;;-139.48;100.00;61774.03;5033689;28;20048;-73
2022/02/09 18:03:11;;;;;;;3.55;1.88;;;;;;;-139.48;100.00;61774.03;5034646;28;20416;-72
2022/02/09 18:06:06;;;;;;;5.00;1.85;;;;;;;-139.48;100.00;61774.03;5033785;28;20107;-73
2022/02/09 18:08:58;;;;;;;5.82;2.47;;;;;;;-139.48;100.00;61774.03;5033743;28;20516;-73
2022/02/09 18:12:03;;;;;;;5.22;2.20;;;;;;;-139.48;100.00;61774.03;5034666;28;20112;-73
2022/02/09 18:15:25;;;;;;;5.28;2.30;;;;;;;-139.48;100.00;61774.03;5033875;28;20052;-73
2022/02/09 18:25:15;;;;;;;5.65;2.63;;;;;;;-139.48;100.00;61774.03;5033607;28;20079;-73
2022/02/09 18:30:33;;;;;;;3.60;2.10;;;;;;;-139.48;100.00;61774.03;5033656;28;20040;-72
2022/02/09 18:40:37;;;;;;;4.53;2.70;;;;;;;-139.48;100.00;61774.03;5034643;28;20052;-72
2022/02/09 19:06:25;;;;;;;7.85;2.30;;;;;;;-139.48;100.00;61774.03;5033460;28;20052;-72
2022/02/09 19:17:49;;;;;;;5.07;2.55;;;;;;;-139.48;100.00;61774.03;5033767;28;20048;-73
2022/02/09 19:20:55;;;;;;;5.18;2.55;;;;;;;-139.48;100.00;61774.03;5032207;28;20404;-73
2022/02/09 19:27:10;;;;;;;3.00;2.20;;;;;;;-139.48;100.00;61774.03;5032997;28;20040;-72
2022/02/09 19:43:13;;;;;;;6.72;2.78;;;;;;;-139.48;100.00;61774.03;5032038;28;20116;-72
2022/02/09 19:48:28;;;;;;;4.15;2.47;;;;;;;-139.48;100.00;61774.03;5033346;28;20484;-73
2022/02/09 19:56:50;;;;;;;3.92;2.30;;;;;;;-139.48;100.00;61774.03;5030959;28;20047;-72
2022/02/09 19:59:37;;;;;;;9.07;2.50;;;;;;;-139.48;100.00;61774.03;5032925;28;20048;-73
2022/02/09 20:02:20;;;;;;;3.30;2.05;;;;;;;-139.48;100.00;61774.03;5032619;28;20152;-73
2022/02/09 20:05:05;;;;;;;5.32;3.00;;;;;;;-139.48;100.00;61774.03;5031856;28;20056;-72
2022/02/09 20:07:49;;;;;;;4.60;2.63;;;;;;;-139.48;100.00;61774.03;5032419;28;20175;-73
2022/02/09 20:10:33;;;;;;;6.97;3.00;;;;;;;-139.48;100.00;61774.03;5017870;28;20044;-72
2022/02/09 20:13:17;;;;;;;3.63;2.90;;;;;;;-139.48;100.00;61774.03;5031683;28;20504;-72
2022/02/09 20:16:01;;;;;;;5.38;3.22;;;;;;;-139.48;100.00;61774.03;5031804;28;20500;-72
2022/02/09 20:18:46;;;;;;;10.90;3.80;;;;;;;-139.48;100.00;61774.03;5032116;28;20076;-72
2022/02/09 20:21:31;;;;;;;7.03;3.13;;;;;;;-139.48;100.00;61774.03;5032680;28;20055;-72
2022/02/09 20:24:16;;;;;;;6.38;3.65;;;;;;;-139.48;100.00;61774.03;5017725;28;20361;-72
2022/02/09 20:27:04;;;;;;;8.02;3.40;;;;;;;-139.48;100.00;61774.03;5032680;28;20094;-73
2022/02/09 20:29:49;;;;;;;4.95;3.10;;;;;;;-139.48;100.00;61774.03;5032678;28;20048;-72
2022/02/09 20:32:39;;;;;;;7.88;2.95;;;;;;;-139.48;100.00;61774.03;5032634;28;20381;-72
2022/02/09 20:35:23;;;;;;;9.02;3.05;;;;;;;-139.48;100.00;61774.03;5031440;28;20076;-72
2022/02/09 20:38:14;;;;;;;6.40;2.47;;;;;;;-139.48;100.00;61774.03;5032529;28;20048;-72
2022/02/09 20:41:03;;;;;;;3.75;2.67;;;;;;;-139.48;100.00;61774.03;5031624;28;20045;-72
2022/02/09 20:44:01;;;;;;;6.50;2.90;;;;;;;-139.48;100.00;61774.03;5032326;28;20143;-74
2022/02/09 20:46:45;;;;;;;6.65;4.30;;;;;;;-139.48;100.00;61774.03;5031482;28;20044;-74
2022/02/09 20:49:29;;;;;;;6.65;4.55;;;;;;;-139.48;100.00;61774.03;5032454;28;20061;-74
2022/02/09 20:52:15;;;;;;;7.88;5.00;;;;;;;-139.48;100.00;61774.03;5032484;28;20132;-74
2022/02/09 20:54:59;;;;;;;7.97;4.70;;;;;;;-139.48;100.00;61774.03;5032114;28;20060;-75
2022/02/09 20:57:43;;;;;;;10.07;5.07;;;;;;;-139.48;100.00;61774.03;5017097;28;20128;-74
2022/02/09 21:09:23;;;;;;;11.18;6.25;;;;;;;-139.48;100.00;61774.03;5034293;28;20092;-74
2022/02/09 21:12:29;;;;;;;10.52;4.50;;;;;;;-139.48;100.00;61774.03;5034715;28;20079;-74
2022/02/09 21:15:35;;;;;;;9.73;5.45;;;;;;;-139.48;100.00;61774.03;5035461;28;20060;-74
2022/02/09 21:31:31;;;;;;;7.90;4.90;;;;;;;-139.48;100.00;61774.03;5034523;28;20516;-74
2022/02/09 21:52:12;;;;;;;10.25;4.80;;;;;;;-139.48;100.00;61774.03;5035010;28;20075;-74
2022/02/09 22:00:37;;;;;;;12.82;5.43;;;;;;;-139.48;100.00;61774.03;5034083;28;20122;-74
2022/02/09 22:45:58;;;;;;;9.95;6.57;;;;;;;-139.48;100.00;61774.03;5033886;28;20108;-74
2022/02/09 22:54:49;;;;;;;13.45;7.20;;;;;;;-139.48;100.00;61774.03;5032934;28;20040;-74
2022/02/09 22:57:43;;;;;;;11.73;6.63;;;;;;;-139.48;100.00;61774.03;5033815;28;20384;-74
2022/02/09 23:01:32;;;;;;;10.50;6.78;;;;;;;-139.48;100.00;61774.03;5020034;28;20428;-74
2022/02/09 23:06:38;;;;;;;11.55;6.55;;;;;;;-139.48;100.00;61774.03;5033531;28;20056;-74
2022/02/09 23:12:43;;;;;;;13.57;6.68;;;;;;;-139.48;100.00;61774.03;5033682;28;20079;-74
2022/02/09 23:54:31;;;;;;;13.63;6.97;;;;;;;-139.48;100.00;61774.03;5032894;28;20092;-74
2022/02/09 23:57:52;;;;;;;13.23;7.32;;;;;;;-139.48;100.00;61774.03;5032497;28;20048;-74
